sensor_id;sensor_type;location;lat;lon;timestamp;pressure;altitude;pressure_sealevel;temperature;humidity
47753;BME280;2038;51.728;6.674;2024-01-25T00:00:25;77771.34;;;-141.64;77.90
47753;BME280;2038;51.728;6.674;2024-01-25T00:02:52;77765.47;;;-141.64;77.49
47753;BME280;2038;51.728;6.674;2024-01-25T00:05:18;77781.09;;;-141.64;78.03
47753;BME280;2038;51.728;6.674;2024-01-25T00:07:47;77781.09;;;-141.64;77.66
47753;BME280;2038;51.728;6.674;2024-01-25T00:10:16;77790.88;;;-141.64;77.35
47753;BME280;2038;51.728;6.674;2024-01-25T00:12:43;77794.78;;;-141.64;77.82
47753;BME280;2038;51.728;6.674;2024-01-25T00:15:10;77785.00;;;-141.64;77.33
47753;BME280;2038;51.728;6.674;2024-01-25T00:17:37;77788.91;;;-141.64;77.41
47753;BME280;2038;51.728;6.674;2024-01-25T00:20:04;77798.66;;;-141.64;77.71
47753;BME280;2038;51.728;6.674;2024-01-25T00:22:31;77806.50;;;-141.64;77.58
47753;BME280;2038;51.728;6.674;2024-01-25T00:24:58;77804.53;;;-141.64;77.36
47753;BME280;2038;51.728;6.674;2024-01-25T00:27:25;77806.50;;;-141.64;77.45
47753;BME280;2038;51.728;6.674;2024-01-25T00:29:52;77810.41;;;-141.64;77.72
47753;BME280;2038;51.728;6.674;2024-01-25T00:32:18;77812.34;;;-141.64;77.23
47753;BME280;2038;51.728;6.674;2024-01-25T00:34:44;77814.31;;;-141.64;77.10
47753;BME280;2038;51.728;6.674;2024-01-25T00:37:11;77824.06;;;-141.64;77.49
47753;BME280;2038;51.728;6.674;2024-01-25T00:39:37;77835.78;;;-141.64;78.44
47753;BME280;2038;51.728;6.674;2024-01-25T00:42:06;77827.97;;;-141.64;78.04
47753;BME280;2038;51.728;6.674;2024-01-25T00:44:33;77845.56;;;-141.64;77.95
47753;BME280;2038;51.728;6.674;2024-01-25T00:46:59;77847.50;;;-141.64;78.59
47753;BME280;2038;51.728;6.674;2024-01-25T00:49:26;77869.00;;;-141.64;78.33
47753;BME280;2038;51.728;6.674;2024-01-25T00:51:59;77878.75;;;-141.64;78.86
47753;BME280;2038;51.728;6.674;2024-01-25T00:54:28;77878.75;;;-141.64;79.46
47753;BME280;2038;51.728;6.674;2024-01-25T00:56:55;77869.00;;;-141.64;79.33
47753;BME280;2038;51.728;6.674;2024-01-25T00:59:22;77872.91;;;-141.64;79.31
47753;BME280;2038;51.728;6.674;2024-01-25T01:01:48;77869.00;;;-141.64;79.53
47753;BME280;2038;51.728;6.674;2024-01-25T01:04:19;77863.13;;;-141.64;79.50
47753;BME280;2038;51.728;6.674;2024-01-25T01:06:46;77872.91;;;-141.64;79.25
47753;BME280;2038;51.728;6.674;2024-01-25T01:09:13;77867.03;;;-141.64;78.80
47753;BME280;2038;51.728;6.674;2024-01-25T01:11:40;77876.81;;;-141.64;78.70
47753;BME280;2038;51.728;6.674;2024-01-25T01:14:06;77876.81;;;-141.64;78.47
47753;BME280;2038;51.728;6.674;2024-01-25T01:16:32;77892.44;;;-141.64;78.96
47753;BME280;2038;51.728;6.674;2024-01-25T01:18:59;77898.28;;;-141.64;78.84
47753;BME280;2038;51.728;6.674;2024-01-25T01:21:32;77894.38;;;-141.64;78.10
47753;BME280;2038;51.728;6.674;2024-01-25T01:23:59;77898.28;;;-141.64;78.14
47753;BME280;2038;51.728;6.674;2024-01-25T01:26:25;77908.06;;;-141.64;78.58
47753;BME280;2038;51.728;6.674;2024-01-25T01:28:51;77917.81;;;-141.64;78.31
47753;BME280;2038;51.728;6.674;2024-01-25T01:31:18;77925.63;;;-141.64;78.42
47753;BME280;2038;51.728;6.674;2024-01-25T01:33:44;77927.59;;;-141.64;78.85
47753;BME280;2038;51.728;6.674;2024-01-25T01:36:10;77941.25;;;-141.64;79.04
47753;BME280;2038;51.728;6.674;2024-01-25T01:38:36;77937.34;;;-141.64;78.83
47753;BME280;2038;51.728;6.674;2024-01-25T01:41:03;77933.44;;;-141.64;78.83
47753;BME280;2038;51.728;6.674;2024-01-25T01:43:29;77952.97;;;-141.64;79.36
47753;BME280;2038;51.728;6.674;2024-01-25T01:46:02;77949.06;;;-141.64;79.36
47753;BME280;2038;51.728;6.674;2024-01-25T01:48:33;77960.78;;;-141.64;78.91
47753;BME280;2038;51.728;6.674;2024-01-25T01:51:00;77958.84;;;-141.64;79.10
47753;BME280;2038;51.728;6.674;2024-01-25T01:53:27;77968.59;;;-141.64;79.45
47753;BME280;2038;51.728;6.674;2024-01-25T01:55:53;77984.22;;;-141.64;79.20
47753;BME280;2038;51.728;6.674;2024-01-25T01:58:21;77986.19;;;-141.64;79.19
47753;BME280;2038;51.728;6.674;2024-01-25T02:00:50;77990.09;;;-141.64;79.19
47753;BME280;2038;51.728;6.674;2024-01-25T02:03:16;77994.00;;;-141.64;79.41
47753;BME280;2038;51.728;6.674;2024-01-25T02:05:42;77995.94;;;-141.64;79.64
47753;BME280;2038;51.728;6.674;2024-01-25T02:08:09;78009.63;;;-141.64;79.81
47753;BME280;2038;51.728;6.674;2024-01-25T02:10:36;78011.56;;;-141.64;79.89
47753;BME280;2038;51.728;6.674;2024-01-25T02:13:02;78015.47;;;-141.64;79.33
47753;BME280;2038;51.728;6.674;2024-01-25T02:15:28;78021.34;;;-141.64;79.69
47753;BME280;2038;51.728;6.674;2024-01-25T02:17:54;78031.09;;;-141.64;79.60
47753;BME280;2038;51.728;6.674;2024-01-25T02:20:22;78036.97;;;-141.64;80.00
47753;BME280;2038;51.728;6.674;2024-01-25T02:22:48;78052.59;;;-141.64;80.14
47753;BME280;2038;51.728;6.674;2024-01-25T02:25:14;78052.59;;;-141.64;79.37
47753;BME280;2038;51.728;6.674;2024-01-25T02:27:40;78060.41;;;-141.64;79.73
47753;BME280;2038;51.728;6.674;2024-01-25T02:30:07;78070.19;;;-141.64;79.51
47753;BME280;2038;51.728;6.674;2024-01-25T02:32:34;78076.03;;;-141.64;80.11
47753;BME280;2038;51.728;6.674;2024-01-25T02:35:00;78081.91;;;-141.64;80.18
47753;BME280;2038;51.728;6.674;2024-01-25T02:37:27;78087.75;;;-141.64;79.97
47753;BME280;2038;51.728;6.674;2024-01-25T02:39:53;78093.63;;;-141.64;80.08
47753;BME280;2038;51.728;6.674;2024-01-25T02:42:19;78103.38;;;-141.64;80.24
47753;BME280;2038;51.728;6.674;2024-01-25T02:44:46;78111.19;;;-141.64;80.98
47753;BME280;2038;51.728;6.674;2024-01-25T02:47:12;78115.09;;;-141.64;81.12
47753;BME280;2038;51.728;6.674;2024-01-25T02:49:41;78122.91;;;-141.64;81.54
47753;BME280;2038;51.728;6.674;2024-01-25T02:52:07;78120.97;;;-141.64;81.72
47753;BME280;2038;51.728;6.674;2024-01-25T02:54:35;78128.78;;;-141.64;81.53
47753;BME280;2038;51.728;6.674;2024-01-25T02:57:03;78136.59;;;-141.64;81.44
47753;BME280;2038;51.728;6.674;2024-01-25T02:59:29;78142.44;;;-141.64;81.12
47753;BME280;2038;51.728;6.674;2024-01-25T03:01:56;78142.44;;;-141.64;81.59
47753;BME280;2038;51.728;6.674;2024-01-25T03:04:23;78134.63;;;-141.64;81.84
47753;BME280;2038;51.728;6.674;2024-01-25T03:06:49;78138.53;;;-141.64;81.33
47753;BME280;2038;51.728;6.674;2024-01-25T03:09:15;78138.53;;;-141.64;81.69
47753;BME280;2038;51.728;6.674;2024-01-25T03:11:42;78148.31;;;-141.64;81.37
47753;BME280;2038;51.728;6.674;2024-01-25T03:14:08;78146.34;;;-141.64;81.62
47753;BME280;2038;51.728;6.674;2024-01-25T03:16:34;78158.06;;;-141.64;81.12
47753;BME280;2038;51.728;6.674;2024-01-25T03:19:00;78154.16;;;-141.64;81.74
47753;BME280;2038;51.728;6.674;2024-01-25T03:21:26;78158.06;;;-141.64;81.73
47753;BME280;2038;51.728;6.674;2024-01-25T03:23:53;78158.06;;;-141.64;81.66
47753;BME280;2038;51.728;6.674;2024-01-25T03:26:19;78156.13;;;-141.64;82.05
47753;BME280;2038;51.728;6.674;2024-01-25T03:28:45;78160.03;;;-141.64;81.85
47753;BME280;2038;51.728;6.674;2024-01-25T03:31:11;78165.91;;;-141.64;81.99
47753;BME280;2038;51.728;6.674;2024-01-25T03:33:37;78173.72;;;-141.64;81.96
47753;BME280;2038;51.728;6.674;2024-01-25T03:36:04;78179.56;;;-141.64;81.68
47753;BME280;2038;51.728;6.674;2024-01-25T03:38:32;78183.47;;;-141.64;81.92
47753;BME280;2038;51.728;6.674;2024-01-25T03:40:58;78206.91;;;-141.64;82.14
47753;BME280;2038;51.728;6.674;2024-01-25T03:43:27;78212.78;;;-141.64;82.21
47753;BME280;2038;51.728;6.674;2024-01-25T03:45:54;78224.50;;;-141.64;81.95
47753;BME280;2038;51.728;6.674;2024-01-25T03:48:20;78236.22;;;-141.64;82.42
47753;BME280;2038;51.728;6.674;2024-01-25T03:50:47;78251.84;;;-141.64;82.35
47753;BME280;2038;51.728;6.674;2024-01-25T03:53:14;78249.88;;;-141.64;82.78
47753;BME280;2038;51.728;6.674;2024-01-25T03:55:41;78255.75;;;-141.64;82.32
47753;BME280;2038;51.728;6.674;2024-01-25T03:58:07;78259.66;;;-141.64;82.90
47753;BME280;2038;51.728;6.674;2024-01-25T04:00:34;78249.88;;;-141.64;82.80
47753;BME280;2038;51.728;6.674;2024-01-25T04:03:00;78255.75;;;-141.64;82.61
47753;BME280;2038;51.728;6.674;2024-01-25T04:05:27;78265.53;;;-141.64;82.09
47753;BME280;2038;51.728;6.674;2024-01-25T04:07:53;78265.53;;;-141.64;82.36
47753;BME280;2038;51.728;6.674;2024-01-25T04:10:19;78271.38;;;-141.64;82.47
47753;BME280;2038;51.728;6.674;2024-01-25T04:12:45;78263.56;;;-141.64;82.57
47753;BME280;2038;51.728;6.674;2024-01-25T04:15:11;78261.59;;;-141.64;82.48
47753;BME280;2038;51.728;6.674;2024-01-25T04:17:38;78263.56;;;-141.64;82.14
47753;BME280;2038;51.728;6.674;2024-01-25T04:20:04;78271.38;;;-141.64;82.87
47753;BME280;2038;51.728;6.674;2024-01-25T04:22:31;78273.34;;;-141.64;82.39
47753;BME280;2038;51.728;6.674;2024-01-25T04:24:57;78271.38;;;-141.64;82.50
47753;BME280;2038;51.728;6.674;2024-01-25T04:27:23;78281.16;;;-141.64;82.58
47753;BME280;2038;51.728;6.674;2024-01-25T04:29:49;78281.16;;;-141.64;83.16
47753;BME280;2038;51.728;6.674;2024-01-25T04:32:16;78285.06;;;-141.64;82.49
47753;BME280;2038;51.728;6.674;2024-01-25T04:34:44;78294.81;;;-141.64;82.42
47753;BME280;2038;51.728;6.674;2024-01-25T04:37:12;78308.50;;;-141.64;83.09
47753;BME280;2038;51.728;6.674;2024-01-25T04:39:38;78306.53;;;-141.64;83.50
47753;BME280;2038;51.728;6.674;2024-01-25T04:42:04;78300.69;;;-141.64;83.48
47753;BME280;2038;51.728;6.674;2024-01-25T04:44:30;78300.69;;;-141.64;83.56
47753;BME280;2038;51.728;6.674;2024-01-25T04:46:57;78300.69;;;-141.64;83.04
47753;BME280;2038;51.728;6.674;2024-01-25T04:49:23;78304.59;;;-141.64;83.88
47753;BME280;2038;51.728;6.674;2024-01-25T04:51:50;78302.63;;;-141.64;83.56
47753;BME280;2038;51.728;6.674;2024-01-25T04:54:17;78306.53;;;-141.64;83.62
47753;BME280;2038;51.728;6.674;2024-01-25T04:56:44;78310.44;;;-141.64;83.87
47753;BME280;2038;51.728;6.674;2024-01-25T04:59:10;78310.44;;;-141.64;84.06
47753;BME280;2038;51.728;6.674;2024-01-25T05:01:36;78310.44;;;-141.64;84.34
47753;BME280;2038;51.728;6.674;2024-01-25T05:04:03;78310.44;;;-141.64;84.33
47753;BME280;2038;51.728;6.674;2024-01-25T05:06:29;78316.31;;;-141.64;84.27
47753;BME280;2038;51.728;6.674;2024-01-25T05:08:55;78322.16;;;-141.64;84.04
47753;BME280;2038;51.728;6.674;2024-01-25T05:11:22;78329.97;;;-141.64;84.79
47753;BME280;2038;51.728;6.674;2024-01-25T05:13:48;78335.84;;;-141.64;84.81
47753;BME280;2038;51.728;6.674;2024-01-25T05:16:14;78337.78;;;-141.64;85.37
47753;BME280;2038;51.728;6.674;2024-01-25T05:18:41;78329.97;;;-141.64;84.89
47753;BME280;2038;51.728;6.674;2024-01-25T05:21:07;78324.13;;;-141.64;84.77
47753;BME280;2038;51.728;6.674;2024-01-25T05:23:33;78331.94;;;-141.64;85.17
47753;BME280;2038;51.728;6.674;2024-01-25T05:26:00;78337.78;;;-141.64;85.37
47753;BME280;2038;51.728;6.674;2024-01-25T05:28:27;78347.56;;;-141.64;85.00
47753;BME280;2038;51.728;6.674;2024-01-25T05:30:53;78351.47;;;-141.64;85.07
47753;BME280;2038;51.728;6.674;2024-01-25T05:33:20;78359.28;;;-141.64;84.79
47753;BME280;2038;51.728;6.674;2024-01-25T05:35:46;78374.91;;;-141.64;84.85
47753;BME280;2038;51.728;6.674;2024-01-25T05:38:12;78382.72;;;-141.64;84.66
47753;BME280;2038;51.728;6.674;2024-01-25T05:40:38;78394.44;;;-141.64;84.74
47753;BME280;2038;51.728;6.674;2024-01-25T05:43:04;78412.03;;;-141.64;84.51
47753;BME280;2038;51.728;6.674;2024-01-25T05:45:31;78413.97;;;-141.64;85.05
47753;BME280;2038;51.728;6.674;2024-01-25T05:47:57;78423.75;;;-141.64;85.43
47753;BME280;2038;51.728;6.674;2024-01-25T05:50:23;78437.44;;;-141.64;84.98
47753;BME280;2038;51.728;6.674;2024-01-25T05:52:50;78447.19;;;-141.64;84.46
47753;BME280;2038;51.728;6.674;2024-01-25T05:55:16;78466.72;;;-141.64;84.51
47753;BME280;2038;51.728;6.674;2024-01-25T05:57:43;78480.41;;;-141.64;84.27
47753;BME280;2038;51.728;6.674;2024-01-25T06:00:13;78498.00;;;-141.64;84.43
47753;BME280;2038;51.728;6.674;2024-01-25T06:02:41;78488.22;;;-141.64;84.87
47753;BME280;2038;51.728;6.674;2024-01-25T06:05:07;78472.59;;;-141.64;85.37
47753;BME280;2038;51.728;6.674;2024-01-25T06:07:33;78466.72;;;-141.64;85.43
47753;BME280;2038;51.728;6.674;2024-01-25T06:10:00;78464.78;;;-141.64;85.31
47753;BME280;2038;51.728;6.674;2024-01-25T06:12:26;78443.28;;;-141.64;86.02
47753;BME280;2038;51.728;6.674;2024-01-25T06:14:52;78441.34;;;-141.64;86.35
47753;BME280;2038;51.728;6.674;2024-01-25T06:17:18;78441.34;;;-141.64;86.36
47753;BME280;2038;51.728;6.674;2024-01-25T06:19:44;78443.28;;;-141.64;86.04
47753;BME280;2038;51.728;6.674;2024-01-25T06:22:11;78443.28;;;-141.64;86.24
47753;BME280;2038;51.728;6.674;2024-01-25T06:24:38;78453.06;;;-141.64;86.09
47753;BME280;2038;51.728;6.674;2024-01-25T06:27:05;78456.97;;;-141.64;86.42
47753;BME280;2038;51.728;6.674;2024-01-25T06:29:31;78462.81;;;-141.64;87.07
47753;BME280;2038;51.728;6.674;2024-01-25T06:31:57;78456.97;;;-141.64;87.26
47753;BME280;2038;51.728;6.674;2024-01-25T06:34:23;78455.00;;;-141.64;86.99
47753;BME280;2038;51.728;6.674;2024-01-25T06:36:49;78462.81;;;-141.64;87.07
47753;BME280;2038;51.728;6.674;2024-01-25T06:39:16;78455.00;;;-141.64;86.69
47753;BME280;2038;51.728;6.674;2024-01-25T06:41:42;78447.19;;;-141.64;86.73
47753;BME280;2038;51.728;6.674;2024-01-25T06:44:08;78449.16;;;-141.64;86.30
47753;BME280;2038;51.728;6.674;2024-01-25T06:46:34;78449.16;;;-141.64;86.25
47753;BME280;2038;51.728;6.674;2024-01-25T06:49:01;78460.88;;;-141.64;86.17
47753;BME280;2038;51.728;6.674;2024-01-25T06:51:27;78474.53;;;-141.64;86.66
47753;BME280;2038;51.728;6.674;2024-01-25T06:53:53;78486.25;;;-141.64;86.63
47753;BME280;2038;51.728;6.674;2024-01-25T06:56:19;78490.16;;;-141.64;87.49
47753;BME280;2038;51.728;6.674;2024-01-25T06:58:46;78484.31;;;-141.64;87.73
47753;BME280;2038;51.728;6.674;2024-01-25T07:01:12;78492.13;;;-141.64;87.89
47753;BME280;2038;51.728;6.674;2024-01-25T07:03:39;78496.03;;;-141.64;88.22
47753;BME280;2038;51.728;6.674;2024-01-25T07:06:05;78490.16;;;-141.64;87.93
47753;BME280;2038;51.728;6.674;2024-01-25T07:08:31;78490.16;;;-141.64;87.45
47753;BME280;2038;51.728;6.674;2024-01-25T07:10:58;78498.00;;;-141.64;88.04
47753;BME280;2038;51.728;6.674;2024-01-25T07:13:27;78496.03;;;-141.64;88.21
47753;BME280;2038;51.728;6.674;2024-01-25T07:15:53;78490.16;;;-141.64;87.85
47753;BME280;2038;51.728;6.674;2024-01-25T07:18:19;78499.94;;;-141.64;88.42
47753;BME280;2038;51.728;6.674;2024-01-25T07:20:45;78498.00;;;-141.64;88.07
47753;BME280;2038;51.728;6.674;2024-01-25T07:23:12;78498.00;;;-141.64;88.17
47753;BME280;2038;51.728;6.674;2024-01-25T07:25:38;78498.00;;;-141.64;88.16
47753;BME280;2038;51.728;6.674;2024-01-25T07:28:04;78494.06;;;-141.64;88.69
47753;BME280;2038;51.728;6.674;2024-01-25T07:30:30;78482.34;;;-141.64;89.14
47753;BME280;2038;51.728;6.674;2024-01-25T07:32:57;78470.63;;;-141.64;88.70
47753;BME280;2038;51.728;6.674;2024-01-25T07:35:23;78476.50;;;-141.64;88.75
47753;BME280;2038;51.728;6.674;2024-01-25T07:37:49;78488.22;;;-141.64;88.61
47753;BME280;2038;51.728;6.674;2024-01-25T07:40:15;78486.25;;;-141.64;88.71
47753;BME280;2038;51.728;6.674;2024-01-25T07:42:42;78486.25;;;-141.64;88.40
47753;BME280;2038;51.728;6.674;2024-01-25T07:45:08;78490.16;;;-141.64;88.25
47753;BME280;2038;51.728;6.674;2024-01-25T07:47:35;78482.34;;;-141.64;88.24
47753;BME280;2038;51.728;6.674;2024-01-25T07:50:01;78482.34;;;-141.64;88.37
47753;BME280;2038;51.728;6.674;2024-01-25T07:52:29;78472.59;;;-141.64;88.11
47753;BME280;2038;51.728;6.674;2024-01-25T07:54:55;78482.34;;;-141.64;88.51
47753;BME280;2038;51.728;6.674;2024-01-25T07:57:21;78476.50;;;-141.64;88.76
47753;BME280;2038;51.728;6.674;2024-01-25T07:59:47;78478.44;;;-141.64;88.45
47753;BME280;2038;51.728;6.674;2024-01-25T08:02:14;78478.44;;;-141.64;88.43
47753;BME280;2038;51.728;6.674;2024-01-25T08:04:40;78478.44;;;-141.64;88.31
47753;BME280;2038;51.728;6.674;2024-01-25T08:07:06;78484.31;;;-141.64;88.28
47753;BME280;2038;51.728;6.674;2024-01-25T08:09:32;78484.31;;;-141.64;88.26
47753;BME280;2038;51.728;6.674;2024-01-25T08:11:58;78490.16;;;-141.64;88.16
47753;BME280;2038;51.728;6.674;2024-01-25T08:14:26;78484.31;;;-141.64;88.04
47753;BME280;2038;51.728;6.674;2024-01-25T08:16:52;78476.50;;;-141.64;88.14
47753;BME280;2038;51.728;6.674;2024-01-25T08:19:18;78476.50;;;-141.64;88.17
47753;BME280;2038;51.728;6.674;2024-01-25T08:21:44;78466.72;;;-141.64;88.10
47753;BME280;2038;51.728;6.674;2024-01-25T08:24:11;78460.88;;;-141.64;88.56
47753;BME280;2038;51.728;6.674;2024-01-25T08:26:37;78451.09;;;-141.64;88.56
47753;BME280;2038;51.728;6.674;2024-01-25T08:29:04;78453.06;;;-141.64;88.13
47753;BME280;2038;51.728;6.674;2024-01-25T08:31:30;78456.97;;;-141.64;88.45
47753;BME280;2038;51.728;6.674;2024-01-25T08:33:56;78443.28;;;-141.64;88.53
47753;BME280;2038;51.728;6.674;2024-01-25T08:36:22;78443.28;;;-141.64;88.19
47753;BME280;2038;51.728;6.674;2024-01-25T08:38:49;78435.47;;;-141.64;88.73
47753;BME280;2038;51.728;6.674;2024-01-25T08:41:15;78437.44;;;-141.64;88.62
47753;BME280;2038;51.728;6.674;2024-01-25T08:43:42;78437.44;;;-141.64;88.22
47753;BME280;2038;51.728;6.674;2024-01-25T08:46:08;78433.53;;;-141.64;88.65
47753;BME280;2038;51.728;6.674;2024-01-25T08:48:35;78435.47;;;-141.64;88.19
47753;BME280;2038;51.728;6.674;2024-01-25T08:51:01;78437.44;;;-141.64;88.16
47753;BME280;2038;51.728;6.674;2024-01-25T08:53:28;78435.47;;;-141.64;88.65
47753;BME280;2038;51.728;6.674;2024-01-25T08:55:55;78425.69;;;-141.64;88.45
47753;BME280;2038;51.728;6.674;2024-01-25T08:58:21;78423.75;;;-141.64;88.80
47753;BME280;2038;51.728;6.674;2024-01-25T09:00:48;78439.38;;;-141.64;88.68
47753;BME280;2038;51.728;6.674;2024-01-25T09:03:17;78431.56;;;-141.64;88.76
47753;BME280;2038;51.728;6.674;2024-01-25T09:05:44;78423.75;;;-141.64;89.22
47753;BME280;2038;51.728;6.674;2024-01-25T09:08:13;78415.94;;;-141.64;89.08
47753;BME280;2038;51.728;6.674;2024-01-25T09:10:43;78406.16;;;-141.64;89.33
47753;BME280;2038;51.728;6.674;2024-01-25T09:13:10;78388.59;;;-141.64;88.94
47753;BME280;2038;51.728;6.674;2024-01-25T09:15:36;78376.88;;;-141.64;88.84
47753;BME280;2038;51.728;6.674;2024-01-25T09:18:03;78357.34;;;-141.64;88.87
47753;BME280;2038;51.728;6.674;2024-01-25T09:20:29;78349.53;;;-141.64;88.56
47753;BME280;2038;51.728;6.674;2024-01-25T09:22:56;78343.66;;;-141.64;88.42
47753;BME280;2038;51.728;6.674;2024-01-25T09:25:22;78349.53;;;-141.64;87.97
47753;BME280;2038;51.728;6.674;2024-01-25T09:27:49;78345.59;;;-141.64;87.96
47753;BME280;2038;51.728;6.674;2024-01-25T09:30:15;78339.75;;;-141.64;87.84
47753;BME280;2038;51.728;6.674;2024-01-25T09:32:41;78335.84;;;-141.64;87.76
47753;BME280;2038;51.728;6.674;2024-01-25T09:35:08;78333.88;;;-141.64;87.36
47753;BME280;2038;51.728;6.674;2024-01-25T09:37:34;78322.16;;;-141.64;87.36
47753;BME280;2038;51.728;6.674;2024-01-25T09:40:00;78312.41;;;-141.64;87.25
47753;BME280;2038;51.728;6.674;2024-01-25T09:42:26;78310.44;;;-141.64;87.71
47753;BME280;2038;51.728;6.674;2024-01-25T09:44:54;78304.59;;;-141.64;87.51
47753;BME280;2038;51.728;6.674;2024-01-25T09:47:21;78304.59;;;-141.64;87.57
47753;BME280;2038;51.728;6.674;2024-01-25T09:49:48;78300.69;;;-141.64;87.61
47753;BME280;2038;51.728;6.674;2024-01-25T09:52:14;78292.88;;;-141.64;87.78
47753;BME280;2038;51.728;6.674;2024-01-25T09:54:42;78285.06;;;-141.64;88.11
47753;BME280;2038;51.728;6.674;2024-01-25T09:57:21;78285.06;;;-141.64;87.79
47753;BME280;2038;51.728;6.674;2024-01-25T09:59:50;78271.38;;;-141.64;87.69
47753;BME280;2038;51.728;6.674;2024-01-25T10:02:16;78253.78;;;-141.64;87.58
47753;BME280;2038;51.728;6.674;2024-01-25T10:04:46;78247.94;;;-141.64;87.23
47753;BME280;2038;51.728;6.674;2024-01-25T10:07:15;78240.13;;;-141.64;86.84
47753;BME280;2038;51.728;6.674;2024-01-25T10:09:42;78244.03;;;-141.64;86.54
47753;BME280;2038;51.728;6.674;2024-01-25T10:12:08;78232.31;;;-141.64;86.95
47753;BME280;2038;51.728;6.674;2024-01-25T10:14:34;78238.16;;;-141.64;86.71
47753;BME280;2038;51.728;6.674;2024-01-25T10:17:01;78240.13;;;-141.64;86.23
47753;BME280;2038;51.728;6.674;2024-01-25T10:19:28;78234.25;;;-141.64;86.43
47753;BME280;2038;51.728;6.674;2024-01-25T10:21:55;78228.41;;;-141.64;85.65
47753;BME280;2038;51.728;6.674;2024-01-25T10:24:22;78226.44;;;-141.64;85.60
47753;BME280;2038;51.728;6.674;2024-01-25T10:26:49;78216.69;;;-141.64;85.08
47753;BME280;2038;51.728;6.674;2024-01-25T10:29:16;78204.97;;;-141.64;85.20
47753;BME280;2038;51.728;6.674;2024-01-25T10:31:43;78204.97;;;-141.64;85.46
47753;BME280;2038;51.728;6.674;2024-01-25T10:34:13;78193.25;;;-141.64;85.37
47753;BME280;2038;51.728;6.674;2024-01-25T10:36:40;78187.38;;;-141.64;85.65
47753;BME280;2038;51.728;6.674;2024-01-25T10:39:07;78169.81;;;-141.64;85.54
47753;BME280;2038;51.728;6.674;2024-01-25T10:41:35;78154.16;;;-141.64;85.62
47753;BME280;2038;51.728;6.674;2024-01-25T10:44:01;78140.50;;;-141.64;85.06
47753;BME280;2038;51.728;6.674;2024-01-25T10:46:29;78126.81;;;-141.64;85.43
47753;BME280;2038;51.728;6.674;2024-01-25T10:48:58;78126.81;;;-141.64;85.31
47753;BME280;2038;51.728;6.674;2024-01-25T10:51:28;78115.09;;;-141.64;85.15
47753;BME280;2038;51.728;6.674;2024-01-25T10:53:56;78101.44;;;-141.64;84.74
47753;BME280;2038;51.728;6.674;2024-01-25T10:56:24;78091.66;;;-141.64;84.77
47753;BME280;2038;51.728;6.674;2024-01-25T10:58:51;78076.03;;;-141.64;84.94
47753;BME280;2038;51.728;6.674;2024-01-25T11:01:17;78074.09;;;-141.64;84.44
47753;BME280;2038;51.728;6.674;2024-01-25T11:03:46;78079.94;;;-141.64;83.94
47753;BME280;2038;51.728;6.674;2024-01-25T11:06:13;78074.09;;;-141.64;83.56
47753;BME280;2038;51.728;6.674;2024-01-25T11:08:40;78062.38;;;-141.64;83.52
47753;BME280;2038;51.728;6.674;2024-01-25T11:11:08;78060.41;;;-141.64;83.17
47753;BME280;2038;51.728;6.674;2024-01-25T11:13:39;78066.28;;;-141.64;83.49
47753;BME280;2038;51.728;6.674;2024-01-25T11:16:16;78066.28;;;-141.64;83.79
47753;BME280;2038;51.728;6.674;2024-01-25T11:18:52;78058.47;;;-141.64;83.41
47753;BME280;2038;51.728;6.674;2024-01-25T11:21:29;78052.59;;;-141.64;83.53
47753;BME280;2038;51.728;6.674;2024-01-25T11:24:05;78031.09;;;-141.64;83.85
47753;BME280;2038;51.728;6.674;2024-01-25T11:26:34;78023.31;;;-141.64;83.50
47753;BME280;2038;51.728;6.674;2024-01-25T11:29:01;78021.34;;;-141.64;83.91
47753;BME280;2038;51.728;6.674;2024-01-25T11:31:28;78001.81;;;-141.64;83.74
47753;BME280;2038;51.728;6.674;2024-01-25T11:34:01;77995.94;;;-141.64;83.13
47753;BME280;2038;51.728;6.674;2024-01-25T11:36:28;77986.19;;;-141.64;83.18
47753;BME280;2038;51.728;6.674;2024-01-25T11:38:55;77980.31;;;-141.64;82.77
47753;BME280;2038;51.728;6.674;2024-01-25T11:41:21;77968.59;;;-141.64;82.41
47753;BME280;2038;51.728;6.674;2024-01-25T11:43:51;77958.84;;;-141.64;82.53
47753;BME280;2038;51.728;6.674;2024-01-25T11:46:18;77954.94;;;-141.64;81.91
47753;BME280;2038;51.728;6.674;2024-01-25T11:48:45;77952.97;;;-141.64;82.04
47753;BME280;2038;51.728;6.674;2024-01-25T11:51:11;77943.22;;;-141.64;82.02
47753;BME280;2038;51.728;6.674;2024-01-25T11:53:38;77931.50;;;-141.64;81.73
47753;BME280;2038;51.728;6.674;2024-01-25T11:56:07;77925.63;;;-141.64;81.43
47753;BME280;2038;51.728;6.674;2024-01-25T11:58:37;77919.78;;;-141.64;81.21
47753;BME280;2038;51.728;6.674;2024-01-25T12:01:06;77929.53;;;-141.64;81.43
47753;BME280;2038;51.728;6.674;2024-01-25T12:03:35;77927.59;;;-141.64;81.20
47753;BME280;2038;51.728;6.674;2024-01-25T12:06:04;77919.78;;;-141.64;81.29
47753;BME280;2038;51.728;6.674;2024-01-25T12:08:34;77915.88;;;-141.64;81.08
47753;BME280;2038;51.728;6.674;2024-01-25T12:11:05;77911.97;;;-141.64;80.51
47753;BME280;2038;51.728;6.674;2024-01-25T12:13:34;77906.09;;;-141.64;80.32
47753;BME280;2038;51.728;6.674;2024-01-25T12:16:10;77904.16;;;-141.64;80.71
47753;BME280;2038;51.728;6.674;2024-01-25T12:18:38;77888.53;;;-141.64;80.80
47753;BME280;2038;51.728;6.674;2024-01-25T12:21:06;77878.75;;;-141.64;80.85
47753;BME280;2038;51.728;6.674;2024-01-25T12:23:36;77872.91;;;-141.64;80.73
47753;BME280;2038;51.728;6.674;2024-01-25T12:26:09;77878.75;;;-141.64;79.90
47753;BME280;2038;51.728;6.674;2024-01-25T12:28:37;77878.75;;;-141.64;80.13
47753;BME280;2038;51.728;6.674;2024-01-25T12:31:04;77867.03;;;-141.64;79.44
47753;BME280;2038;51.728;6.674;2024-01-25T12:33:32;77888.53;;;-141.64;79.30
47753;BME280;2038;51.728;6.674;2024-01-25T12:36:03;77880.72;;;-141.64;78.94
47753;BME280;2038;51.728;6.674;2024-01-25T12:38:29;77876.81;;;-141.64;78.96
47753;BME280;2038;51.728;6.674;2024-01-25T12:40:59;77867.03;;;-141.64;78.99
47753;BME280;2038;51.728;6.674;2024-01-25T12:43:25;77869.00;;;-141.64;79.14
47753;BME280;2038;51.728;6.674;2024-01-25T12:45:52;77857.28;;;-141.64;79.10
47753;BME280;2038;51.728;6.674;2024-01-25T12:48:18;77849.47;;;-141.64;79.14